sensor_id;sensor_type;location;lat;lon;timestamp;P1;durP1;ratioP1;P2;durP2;ratioP2
60730;SDS011;46580;52.114;11.674;2022-07-03T00:01:49;1.60;;;1.50;;
60730;SDS011;46580;52.114;11.674;2022-07-03T00:04:16;2.07;;;1.80;;
60730;SDS011;46580;52.114;11.674;2022-07-03T00:06:43;2.80;;;1.73;;
60730;SDS011;46580;52.114;11.674;2022-07-03T00:09:09;2.10;;;1.70;;
60730;SDS011;46580;52.114;11.674;2022-07-03T00:11:35;3.07;;;1.93;;
60730;SDS011;46580;52.114;11.674;2022-07-03T00:14:01;2.33;;;1.73;;
60730;SDS011;46580;52.114;11.674;2022-07-03T00:16:27;3.37;;;1.83;;
60730;SDS011;46580;52.114;11.674;2022-07-03T00:18:54;4.00;;;1.80;;
60730;SDS011;46580;52.114;11.674;2022-07-03T00:21:27;4.57;;;1.97;;
60730;SDS011;46580;52.114;11.674;2022-07-03T00:24:02;2.37;;;1.80;;
60730;SDS011;46580;52.114;11.674;2022-07-03T00:26:32;2.20;;;2.00;;
60730;SDS011;46580;52.114;11.674;2022-07-03T00:29:00;3.73;;;2.27;;
60730;SDS011;46580;52.114;11.674;2022-07-03T00:31:29;1.73;;;1.63;;
60730;SDS011;46580;52.114;11.674;2022-07-03T00:33:58;5.07;;;1.67;;
60730;SDS011;46580;52.114;11.674;2022-07-03T00:36:28;1.77;;;1.57;;
60730;SDS011;46580;52.114;11.674;2022-07-03T00:38:56;2.57;;;1.60;;
60730;SDS011;46580;52.114;11.674;2022-07-03T00:41:23;2.93;;;1.80;;
60730;SDS011;46580;52.114;11.674;2022-07-03T00:43:52;1.97;;;1.87;;
60730;SDS011;46580;52.114;11.674;2022-07-03T00:46:20;3.63;;;1.90;;
60730;SDS011;46580;52.114;11.674;2022-07-03T00:48:47;2.00;;;1.87;;
60730;SDS011;46580;52.114;11.674;2022-07-03T00:51:18;2.43;;;1.67;;
60730;SDS011;46580;52.114;11.674;2022-07-03T00:53:51;5.70;;;1.83;;
60730;SDS011;46580;52.114;11.674;2022-07-03T00:56:22;2.93;;;2.33;;
60730;SDS011;46580;52.114;11.674;2022-07-03T00:58:55;2.87;;;1.87;;
60730;SDS011;46580;52.114;11.674;2022-07-03T01:01:35;2.70;;;1.90;;
60730;SDS011;46580;52.114;11.674;2022-07-03T01:07:02;3.27;;;2.20;;
60730;SDS011;46580;52.114;11.674;2022-07-03T01:09:43;4.40;;;2.07;;
60730;SDS011;46580;52.114;11.674;2022-07-03T01:21:06;3.17;;;2.03;;
60730;SDS011;46580;52.114;11.674;2022-07-03T01:23:43;2.43;;;2.10;;
60730;SDS011;46580;52.114;11.674;2022-07-03T01:26:23;3.20;;;1.90;;
60730;SDS011;46580;52.114;11.674;2022-07-03T01:28:52;3.57;;;2.03;;
60730;SDS011;46580;52.114;11.674;2022-07-03T01:31:20;3.20;;;2.47;;
60730;SDS011;46580;52.114;11.674;2022-07-03T01:33:50;5.30;;;2.00;;
60730;SDS011;46580;52.114;11.674;2022-07-03T01:36:18;3.63;;;2.60;;
60730;SDS011;46580;52.114;11.674;2022-07-03T01:38:49;2.93;;;2.10;;
60730;SDS011;46580;52.114;11.674;2022-07-03T01:41:18;5.50;;;2.23;;
60730;SDS011;46580;52.114;11.674;2022-07-03T01:46:15;3.63;;;2.30;;
60730;SDS011;46580;52.114;11.674;2022-07-03T01:48:43;3.67;;;2.27;;
60730;SDS011;46580;52.114;11.674;2022-07-03T01:51:13;3.03;;;2.20;;
60730;SDS011;46580;52.114;11.674;2022-07-03T01:53:47;2.83;;;2.30;;
60730;SDS011;46580;52.114;11.674;2022-07-03T01:56:17;2.53;;;2.23;;
60730;SDS011;46580;52.114;11.674;2022-07-03T01:58:45;4.70;;;2.57;;
60730;SDS011;46580;52.114;11.674;2022-07-03T02:01:25;3.77;;;2.50;;
60730;SDS011;46580;52.114;11.674;2022-07-03T02:06:39;3.07;;;2.43;;
60730;SDS011;46580;52.114;11.674;2022-07-03T02:09:08;2.93;;;2.40;;
60730;SDS011;46580;52.114;11.674;2022-07-03T02:11:38;2.50;;;2.30;;
60730;SDS011;46580;52.114;11.674;2022-07-03T02:19:41;2.27;;;2.07;;
60730;SDS011;46580;52.114;11.674;2022-07-03T02:22:25;7.60;;;2.77;;
60730;SDS011;46580;52.114;11.674;2022-07-03T02:25:06;3.17;;;2.53;;
60730;SDS011;46580;52.114;11.674;2022-07-03T02:30:29;2.17;;;1.90;;
60730;SDS011;46580;52.114;11.674;2022-07-03T02:32:56;3.87;;;2.30;;
60730;SDS011;46580;52.114;11.674;2022-07-03T02:35:27;4.77;;;2.60;;
60730;SDS011;46580;52.114;11.674;2022-07-03T02:38:04;3.03;;;2.73;;
60730;SDS011;46580;52.114;11.674;2022-07-03T02:46:18;2.80;;;2.03;;
60730;SDS011;46580;52.114;11.674;2022-07-03T02:54:40;5.57;;;2.40;;
60730;SDS011;46580;52.114;11.674;2022-07-03T02:57:21;3.70;;;2.30;;
60730;SDS011;46580;52.114;11.674;2022-07-03T02:59:55;3.10;;;2.40;;
60730;SDS011;46580;52.114;11.674;2022-07-03T03:04:49;4.83;;;2.40;;
60730;SDS011;46580;52.114;11.674;2022-07-03T03:07:26;6.83;;;2.60;;
60730;SDS011;46580;52.114;11.674;2022-07-03T03:10:14;2.47;;;2.27;;
60730;SDS011;46580;52.114;11.674;2022-07-03T03:12:52;3.00;;;2.40;;
60730;SDS011;46580;52.114;11.674;2022-07-03T03:15:47;4.03;;;2.50;;
60730;SDS011;46580;52.114;11.674;2022-07-03T03:18:21;3.97;;;2.20;;
60730;SDS011;46580;52.114;11.674;2022-07-03T03:20:48;2.97;;;2.27;;
60730;SDS011;46580;52.114;11.674;2022-07-03T03:26:08;3.03;;;2.60;;
60730;SDS011;46580;52.114;11.674;2022-07-03T03:28:34;7.43;;;2.70;;
60730;SDS011;46580;52.114;11.674;2022-07-03T03:31:01;5.50;;;2.57;;
60730;SDS011;46580;52.114;11.674;2022-07-03T03:33:29;2.77;;;2.27;;
60730;SDS011;46580;52.114;11.674;2022-07-03T03:35:56;5.10;;;2.90;;
60730;SDS011;46580;52.114;11.674;2022-07-03T03:38:23;4.27;;;2.60;;
60730;SDS011;46580;52.114;11.674;2022-07-03T03:40:51;5.60;;;2.20;;
60730;SDS011;46580;52.114;11.674;2022-07-03T03:43:19;3.70;;;2.63;;
60730;SDS011;46580;52.114;11.674;2022-07-03T03:45:46;2.63;;;2.43;;
60730;SDS011;46580;52.114;11.674;2022-07-03T03:48:12;2.83;;;2.57;;
60730;SDS011;46580;52.114;11.674;2022-07-03T03:50:38;5.43;;;2.50;;
60730;SDS011;46580;52.114;11.674;2022-07-03T03:53:04;2.63;;;2.43;;
60730;SDS011;46580;52.114;11.674;2022-07-03T03:55:30;2.87;;;2.63;;
60730;SDS011;46580;52.114;11.674;2022-07-03T03:57:56;5.40;;;2.77;;
60730;SDS011;46580;52.114;11.674;2022-07-03T04:00:23;2.83;;;2.57;;
60730;SDS011;46580;52.114;11.674;2022-07-03T04:02:48;5.00;;;2.57;;
60730;SDS011;46580;52.114;11.674;2022-07-03T04:05:14;3.13;;;2.43;;
60730;SDS011;46580;52.114;11.674;2022-07-03T04:07:41;2.63;;;2.37;;
60730;SDS011;46580;52.114;11.674;2022-07-03T04:10:06;2.57;;;2.37;;
60730;SDS011;46580;52.114;11.674;2022-07-03T04:12:32;4.27;;;2.77;;
60730;SDS011;46580;52.114;11.674;2022-07-03T04:15:02;3.63;;;2.57;;
60730;SDS011;46580;52.114;11.674;2022-07-03T04:17:31;3.93;;;2.00;;
60730;SDS011;46580;52.114;11.674;2022-07-03T04:19:58;3.73;;;2.77;;
60730;SDS011;46580;52.114;11.674;2022-07-03T04:22:33;4.10;;;2.40;;
60730;SDS011;46580;52.114;11.674;2022-07-03T04:24:59;6.30;;;2.60;;
60730;SDS011;46580;52.114;11.674;2022-07-03T04:27:25;3.17;;;2.53;;
60730;SDS011;46580;52.114;11.674;2022-07-03T04:29:52;6.67;;;2.50;;
60730;SDS011;46580;52.114;11.674;2022-07-03T04:32:17;4.37;;;2.80;;
60730;SDS011;46580;52.114;11.674;2022-07-03T04:34:45;4.80;;;2.90;;
60730;SDS011;46580;52.114;11.674;2022-07-03T04:37:12;5.53;;;2.90;;
60730;SDS011;46580;52.114;11.674;2022-07-03T04:39:41;2.97;;;2.73;;
60730;SDS011;46580;52.114;11.674;2022-07-03T04:42:06;3.17;;;2.87;;
60730;SDS011;46580;52.114;11.674;2022-07-03T04:44:33;3.77;;;2.93;;
60730;SDS011;46580;52.114;11.674;2022-07-03T04:47:00;3.10;;;2.60;;
60730;SDS011;46580;52.114;11.674;2022-07-03T04:49:26;3.37;;;2.37;;
60730;SDS011;46580;52.114;11.674;2022-07-03T04:51:52;3.90;;;2.70;;
60730;SDS011;46580;52.114;11.674;2022-07-03T04:54:18;3.17;;;2.80;;
60730;SDS011;46580;52.114;11.674;2022-07-03T04:56:44;5.93;;;2.83;;
60730;SDS011;46580;52.114;11.674;2022-07-03T04:59:12;3.37;;;2.60;;
60730;SDS011;46580;52.114;11.674;2022-07-03T05:01:38;3.23;;;2.60;;
60730;SDS011;46580;52.114;11.674;2022-07-03T05:04:05;4.43;;;2.87;;
60730;SDS011;46580;52.114;11.674;2022-07-03T05:06:31;5.27;;;3.37;;
60730;SDS011;46580;52.114;11.674;2022-07-03T05:08:57;4.47;;;2.40;;
60730;SDS011;46580;52.114;11.674;2022-07-03T05:11:26;4.17;;;2.83;;
60730;SDS011;46580;52.114;11.674;2022-07-03T05:13:52;3.93;;;2.47;;
60730;SDS011;46580;52.114;11.674;2022-07-03T05:16:18;3.93;;;2.90;;
60730;SDS011;46580;52.114;11.674;2022-07-03T05:18:48;4.67;;;2.53;;
60730;SDS011;46580;52.114;11.674;2022-07-03T05:21:13;3.80;;;2.80;;
60730;SDS011;46580;52.114;11.674;2022-07-03T05:23:39;3.13;;;2.80;;
60730;SDS011;46580;52.114;11.674;2022-07-03T05:26:05;2.97;;;2.33;;
60730;SDS011;46580;52.114;11.674;2022-07-03T05:28:31;5.33;;;2.43;;
60730;SDS011;46580;52.114;11.674;2022-07-03T05:30:57;4.67;;;2.53;;
60730;SDS011;46580;52.114;11.674;2022-07-03T05:33:24;4.13;;;2.80;;
60730;SDS011;46580;52.114;11.674;2022-07-03T05:35:51;5.47;;;2.50;;
60730;SDS011;46580;52.114;11.674;2022-07-03T05:38:16;6.67;;;2.43;;
60730;SDS011;46580;52.114;11.674;2022-07-03T05:41:02;6.60;;;2.80;;
60730;SDS011;46580;52.114;11.674;2022-07-03T05:43:29;2.83;;;2.33;;
60730;SDS011;46580;52.114;11.674;2022-07-03T05:45:54;3.30;;;2.60;;
60730;SDS011;46580;52.114;11.674;2022-07-03T05:48:20;2.87;;;2.50;;
60730;SDS011;46580;52.114;11.674;2022-07-03T05:50:46;5.03;;;2.40;;
60730;SDS011;46580;52.114;11.674;2022-07-03T05:53:12;8.13;;;2.47;;
60730;SDS011;46580;52.114;11.674;2022-07-03T05:55:39;5.77;;;2.63;;
60730;SDS011;46580;52.114;11.674;2022-07-03T05:58:07;3.07;;;2.40;;
60730;SDS011;46580;52.114;11.674;2022-07-03T06:00:33;2.70;;;2.37;;
60730;SDS011;46580;52.114;11.674;2022-07-03T06:03:01;3.07;;;2.70;;
60730;SDS011;46580;52.114;11.674;2022-07-03T06:05:27;4.07;;;2.40;;
60730;SDS011;46580;52.114;11.674;2022-07-03T06:07:53;3.20;;;2.90;;
60730;SDS011;46580;52.114;11.674;2022-07-03T06:10:22;2.93;;;2.50;;
60730;SDS011;46580;52.114;11.674;2022-07-03T06:12:49;4.90;;;2.80;;
60730;SDS011;46580;52.114;11.674;2022-07-03T06:15:15;4.30;;;2.73;;
60730;SDS011;46580;52.114;11.674;2022-07-03T06:17:40;2.93;;;2.63;;
60730;SDS011;46580;52.114;11.674;2022-07-03T06:20:09;5.00;;;2.47;;
60730;SDS011;46580;52.114;11.674;2022-07-03T06:22:37;3.13;;;2.63;;
60730;SDS011;46580;52.114;11.674;2022-07-03T06:25:03;3.87;;;2.53;;
60730;SDS011;46580;52.114;11.674;2022-07-03T06:27:31;2.70;;;2.40;;
60730;SDS011;46580;52.114;11.674;2022-07-03T06:29:57;4.23;;;2.27;;
60730;SDS011;46580;52.114;11.674;2022-07-03T06:32:25;4.50;;;2.50;;
60730;SDS011;46580;52.114;11.674;2022-07-03T06:34:51;4.60;;;2.87;;
60730;SDS011;46580;52.114;11.674;2022-07-03T06:37:18;7.17;;;2.77;;
60730;SDS011;46580;52.114;11.674;2022-07-03T06:39:52;2.87;;;2.40;;
60730;SDS011;46580;52.114;11.674;2022-07-03T06:42:25;2.80;;;2.50;;
60730;SDS011;46580;52.114;11.674;2022-07-03T06:44:51;5.07;;;2.53;;
60730;SDS011;46580;52.114;11.674;2022-07-03T06:47:19;7.37;;;2.83;;
60730;SDS011;46580;52.114;11.674;2022-07-03T06:49:47;2.77;;;2.57;;
60730;SDS011;46580;52.114;11.674;2022-07-03T06:52:13;5.23;;;2.50;;
60730;SDS011;46580;52.114;11.674;2022-07-03T06:54:39;2.90;;;2.40;;
60730;SDS011;46580;52.114;11.674;2022-07-03T06:57:10;2.80;;;2.50;;
60730;SDS011;46580;52.114;11.674;2022-07-03T06:59:37;3.73;;;2.73;;
60730;SDS011;46580;52.114;11.674;2022-07-03T07:02:05;4.33;;;2.30;;
60730;SDS011;46580;52.114;11.674;2022-07-03T07:04:34;4.90;;;2.20;;
60730;SDS011;46580;52.114;11.674;2022-07-03T07:07:00;3.13;;;2.40;;
60730;SDS011;46580;52.114;11.674;2022-07-03T07:09:27;3.10;;;2.27;;
60730;SDS011;46580;52.114;11.674;2022-07-03T07:11:52;5.17;;;2.20;;
60730;SDS011;46580;52.114;11.674;2022-07-03T07:14:18;2.50;;;2.27;;
60730;SDS011;46580;52.114;11.674;2022-07-03T07:16:45;3.50;;;2.03;;
60730;SDS011;46580;52.114;11.674;2022-07-03T07:19:11;3.00;;;2.10;;
60730;SDS011;46580;52.114;11.674;2022-07-03T07:21:36;3.10;;;2.20;;
60730;SDS011;46580;52.114;11.674;2022-07-03T07:24:02;3.63;;;2.27;;
60730;SDS011;46580;52.114;11.674;2022-07-03T07:26:28;2.13;;;1.93;;
60730;SDS011;46580;52.114;11.674;2022-07-03T07:28:54;2.33;;;2.13;;
60730;SDS011;46580;52.114;11.674;2022-07-03T07:31:20;1.70;;;1.60;;
60730;SDS011;46580;52.114;11.674;2022-07-03T07:33:47;4.07;;;1.90;;
60730;SDS011;46580;52.114;11.674;2022-07-03T07:36:13;4.10;;;2.23;;
60730;SDS011;46580;52.114;11.674;2022-07-03T07:38:41;2.33;;;2.10;;
60730;SDS011;46580;52.114;11.674;2022-07-03T07:41:06;2.70;;;2.13;;
60730;SDS011;46580;52.114;11.674;2022-07-03T07:43:33;2.87;;;2.00;;
60730;SDS011;46580;52.114;11.674;2022-07-03T07:45:59;2.47;;;1.87;;
60730;SDS011;46580;52.114;11.674;2022-07-03T07:48:35;4.10;;;2.30;;
60730;SDS011;46580;52.114;11.674;2022-07-03T07:51:01;1.97;;;1.77;;
60730;SDS011;46580;52.114;11.674;2022-07-03T07:53:27;1.57;;;1.47;;
60730;SDS011;46580;52.114;11.674;2022-07-03T07:55:53;2.27;;;1.90;;
60730;SDS011;46580;52.114;11.674;2022-07-03T07:58:23;2.23;;;1.57;;
60730;SDS011;46580;52.114;11.674;2022-07-03T08:00:49;2.20;;;2.00;;
60730;SDS011;46580;52.114;11.674;2022-07-03T08:03:35;4.10;;;1.90;;
60730;SDS011;46580;52.114;11.674;2022-07-03T08:06:20;2.23;;;1.67;;
60730;SDS011;46580;52.114;11.674;2022-07-03T08:08:48;2.30;;;1.80;;
60730;SDS011;46580;52.114;11.674;2022-07-03T08:11:14;2.33;;;1.70;;
60730;SDS011;46580;52.114;11.674;2022-07-03T08:13:41;2.50;;;1.90;;
60730;SDS011;46580;52.114;11.674;2022-07-03T08:16:09;2.37;;;2.17;;
60730;SDS011;46580;52.114;11.674;2022-07-03T08:18:35;2.77;;;1.90;;
60730;SDS011;46580;52.114;11.674;2022-07-03T08:21:01;1.73;;;1.63;;
60730;SDS011;46580;52.114;11.674;2022-07-03T08:23:27;3.10;;;1.70;;
60730;SDS011;46580;52.114;11.674;2022-07-03T08:25:54;1.93;;;1.60;;
60730;SDS011;46580;52.114;11.674;2022-07-03T08:28:22;2.50;;;1.40;;
60730;SDS011;46580;52.114;11.674;2022-07-03T08:30:48;2.30;;;1.73;;
60730;SDS011;46580;52.114;11.674;2022-07-03T08:33:14;2.33;;;1.80;;
60730;SDS011;46580;52.114;11.674;2022-07-03T08:35:41;2.40;;;1.83;;
60730;SDS011;46580;52.114;11.674;2022-07-03T08:38:09;2.13;;;1.57;;
60730;SDS011;46580;52.114;11.674;2022-07-03T08:40:36;3.00;;;1.67;;
60730;SDS011;46580;52.114;11.674;2022-07-03T08:43:02;1.80;;;1.47;;
60730;SDS011;46580;52.114;11.674;2022-07-03T08:45:29;4.00;;;1.40;;
60730;SDS011;46580;52.114;11.674;2022-07-03T08:47:58;3.47;;;1.57;;
60730;SDS011;46580;52.114;11.674;2022-07-03T08:50:24;2.03;;;1.50;;
60730;SDS011;46580;52.114;11.674;2022-07-03T08:52:52;1.47;;;1.37;;
60730;SDS011;46580;52.114;11.674;2022-07-03T08:55:20;1.70;;;1.60;;
60730;SDS011;46580;52.114;11.674;2022-07-03T08:57:48;3.97;;;1.90;;
60730;SDS011;46580;52.114;11.674;2022-07-03T09:00:20;1.90;;;1.67;;
60730;SDS011;46580;52.114;11.674;2022-07-03T09:02:47;3.13;;;1.77;;
60730;SDS011;46580;52.114;11.674;2022-07-03T09:05:14;2.63;;;2.00;;
60730;SDS011;46580;52.114;11.674;2022-07-03T09:07:45;3.80;;;1.80;;
60730;SDS011;46580;52.114;11.674;2022-07-03T09:10:17;1.87;;;1.37;;
60730;SDS011;46580;52.114;11.674;2022-07-03T09:12:45;2.00;;;1.80;;
60730;SDS011;46580;52.114;11.674;2022-07-03T09:15:14;2.50;;;1.40;;
60730;SDS011;46580;52.114;11.674;2022-07-03T09:17:55;2.40;;;1.70;;
60730;SDS011;46580;52.114;11.674;2022-07-03T09:20:34;2.13;;;1.30;;
60730;SDS011;46580;52.114;11.674;2022-07-03T09:23:17;1.40;;;1.30;;
60730;SDS011;46580;52.114;11.674;2022-07-03T09:25:58;4.47;;;1.47;;
60730;SDS011;46580;52.114;11.674;2022-07-03T09:28:46;2.80;;;1.53;;
60730;SDS011;46580;52.114;11.674;2022-07-03T09:31:18;2.23;;;1.53;;
60730;SDS011;46580;52.114;11.674;2022-07-03T09:33:53;3.93;;;1.53;;
60730;SDS011;46580;52.114;11.674;2022-07-03T09:41:59;1.67;;;1.30;;
60730;SDS011;46580;52.114;11.674;2022-07-03T09:44:36;1.37;;;1.27;;
60730;SDS011;46580;52.114;11.674;2022-07-03T09:52:25;1.20;;;0.80;;
60730;SDS011;46580;52.114;11.674;2022-07-03T09:55:02;1.67;;;1.17;;
60730;SDS011;46580;52.114;11.674;2022-07-03T09:57:45;1.80;;;1.27;;
60730;SDS011;46580;52.114;11.674;2022-07-03T10:00:27;1.27;;;1.03;;
60730;SDS011;46580;52.114;11.674;2022-07-03T10:03:02;3.90;;;1.10;;
60730;SDS011;46580;52.114;11.674;2022-07-03T10:05:39;1.63;;;1.10;;
60730;SDS011;46580;52.114;11.674;2022-07-03T10:08:10;1.80;;;1.10;;
60730;SDS011;46580;52.114;11.674;2022-07-03T10:10:41;2.47;;;0.93;;
60730;SDS011;46580;52.114;11.674;2022-07-03T10:13:09;2.23;;;1.00;;
60730;SDS011;46580;52.114;11.674;2022-07-03T10:15:37;1.20;;;0.97;;
60730;SDS011;46580;52.114;11.674;2022-07-03T10:18:04;1.27;;;0.90;;
60730;SDS011;46580;52.114;11.674;2022-07-03T10:20:36;1.70;;;0.80;;
60730;SDS011;46580;52.114;11.674;2022-07-03T10:23:05;1.37;;;0.90;;
60730;SDS011;46580;52.114;11.674;2022-07-03T10:25:30;1.60;;;0.80;;
60730;SDS011;46580;52.114;11.674;2022-07-03T10:27:57;1.67;;;1.03;;
60730;SDS011;46580;52.114;11.674;2022-07-03T10:30:26;1.27;;;1.10;;
60730;SDS011;46580;52.114;11.674;2022-07-03T10:32:53;1.90;;;1.17;;
60730;SDS011;46580;52.114;11.674;2022-07-03T10:43:47;1.20;;;1.10;;
60730;SDS011;46580;52.114;11.674;2022-07-03T10:46:32;3.00;;;1.10;;
60730;SDS011;46580;52.114;11.674;2022-07-03T10:49:04;2.70;;;1.07;;
60730;SDS011;46580;52.114;11.674;2022-07-03T10:52:19;2.20;;;1.00;;
60730;SDS011;46580;52.114;11.674;2022-07-03T11:02:24;1.03;;;0.93;;
60730;SDS011;46580;52.114;11.674;2022-07-03T11:15:42;1.17;;;1.07;;
60730;SDS011;46580;52.114;11.674;2022-07-03T11:25:39;1.30;;;1.00;;
60730;SDS011;46580;52.114;11.674;2022-07-03T11:28:07;3.20;;;1.13;;
60730;SDS011;46580;52.114;11.674;2022-07-03T11:36:24;1.30;;;1.10;;
60730;SDS011;46580;52.114;11.674;2022-07-03T11:41:24;1.03;;;0.93;;
60730;SDS011;46580;52.114;11.674;2022-07-03T11:43:52;0.80;;;0.80;;
60730;SDS011;46580;52.114;11.674;2022-07-03T11:46:24;1.77;;;0.87;;
60730;SDS011;46580;52.114;11.674;2022-07-03T11:49:09;4.47;;;1.00;;
60730;SDS011;46580;52.114;11.674;2022-07-03T11:51:38;2.03;;;1.03;;
60730;SDS011;46580;52.114;11.674;2022-07-03T11:54:05;2.53;;;1.00;;
60730;SDS011;46580;52.114;11.674;2022-07-03T11:56:31;0.70;;;0.70;;
60730;SDS011;46580;52.114;11.674;2022-07-03T11:58:58;1.73;;;1.00;;
60730;SDS011;46580;52.114;11.674;2022-07-03T12:04:03;4.13;;;1.00;;
60730;SDS011;46580;52.114;11.674;2022-07-03T12:06:53;1.67;;;0.73;;
60730;SDS011;46580;52.114;11.674;2022-07-03T12:14:34;1.00;;;0.90;;
60730;SDS011;46580;52.114;11.674;2022-07-03T12:17:15;1.37;;;0.80;;
60730;SDS011;46580;52.114;11.674;2022-07-03T12:19:45;1.67;;;0.87;;
60730;SDS011;46580;52.114;11.674;2022-07-03T12:25:02;1.00;;;0.70;;
60730;SDS011;46580;52.114;11.674;2022-07-03T12:27:50;2.63;;;0.80;;
60730;SDS011;46580;52.114;11.674;2022-07-03T12:30:18;0.70;;;0.70;;
60730;SDS011;46580;52.114;11.674;2022-07-03T12:32:52;2.50;;;1.00;;
60730;SDS011;46580;52.114;11.674;2022-07-03T12:35:24;0.90;;;0.90;;
60730;SDS011;46580;52.114;11.674;2022-07-03T12:37:58;1.50;;;0.90;;
60730;SDS011;46580;52.114;11.674;2022-07-03T12:40:24;0.70;;;0.70;;
60730;SDS011;46580;52.114;11.674;2022-07-03T12:42:50;1.73;;;0.90;;
60730;SDS011;46580;52.114;11.674;2022-07-03T12:45:27;1.07;;;0.70;;
60730;SDS011;46580;52.114;11.674;2022-07-03T12:47:58;2.20;;;0.73;;
60730;SDS011;46580;52.114;11.674;2022-07-03T12:50:50;4.50;;;0.80;;
60730;SDS011;46580;52.114;11.674;2022-07-03T12:53:30;0.97;;;0.63;;
60730;SDS011;46580;52.114;11.674;2022-07-03T12:56:01;1.47;;;0.90;;
60730;SDS011;46580;52.114;11.674;2022-07-03T12:58:36;2.60;;;0.60;;
60730;SDS011;46580;52.114;11.674;2022-07-03T13:01:28;1.50;;;0.90;;
60730;SDS011;46580;52.114;11.674;2022-07-03T13:03:59;2.33;;;0.70;;
60730;SDS011;46580;52.114;11.674;2022-07-03T13:06:28;1.37;;;0.80;;
60730;SDS011;46580;52.114;11.674;2022-07-03T13:08:56;0.60;;;0.60;;
60730;SDS011;46580;52.114;11.674;2022-07-03T13:11:28;1.43;;;0.90;;
60730;SDS011;46580;52.114;11.674;2022-07-03T13:19:13;1.00;;;0.90;;
60730;SDS011;46580;52.114;11.674;2022-07-03T13:21:54;1.47;;;0.70;;
60730;SDS011;46580;52.114;11.674;2022-07-03T13:24:23;0.87;;;0.60;;
60730;SDS011;46580;52.114;11.674;2022-07-03T13:26:50;0.90;;;0.60;;
60730;SDS011;46580;52.114;11.674;2022-07-03T13:29:18;0.50;;;0.50;;
60730;SDS011;46580;52.114;11.674;2022-07-03T13:31:46;4.20;;;1.00;;
60730;SDS011;46580;52.114;11.674;2022-07-03T13:34:14;1.30;;;0.80;;
60730;SDS011;46580;52.114;11.674;2022-07-03T13:36:41;3.57;;;0.67;;
60730;SDS011;46580;52.114;11.674;2022-07-03T13:39:09;0.70;;;0.70;;
60730;SDS011;46580;52.114;11.674;2022-07-03T13:41:36;1.00;;;0.67;;
60730;SDS011;46580;52.114;11.674;2022-07-03T13:44:08;2.13;;;0.70;;
60730;SDS011;46580;52.114;11.674;2022-07-03T13:46:35;1.67;;;0.83;;
60730;SDS011;46580;52.114;11.674;2022-07-03T13:49:02;1.93;;;0.70;;
60730;SDS011;46580;52.114;11.674;2022-07-03T13:51:29;2.40;;;0.80;;
60730;SDS011;46580;52.114;11.674;2022-07-03T13:53:57;2.93;;;0.70;;
60730;SDS011;46580;52.114;11.674;2022-07-03T13:56:23;1.00;;;0.90;;
60730;SDS011;46580;52.114;11.674;2022-07-03T13:58:51;1.83;;;0.77;;
60730;SDS011;46580;52.114;11.674;2022-07-03T14:01:20;1.10;;;0.50;;
60730;SDS011;46580;52.114;11.674;2022-07-03T14:03:51;1.57;;;0.70;;
60730;SDS011;46580;52.114;11.674;2022-07-03T14:06:17;4.45;;;1.15;;
60730;SDS011;46580;52.114;11.674;2022-07-03T14:08:44;2.88;;;0.73;;
60730;SDS011;46580;52.114;11.674;2022-07-03T14:11:11;1.57;;;0.60;;
60730;SDS011;46580;52.114;11.674;2022-07-03T14:13:36;2.17;;;0.70;;
60730;SDS011;46580;52.114;11.674;2022-07-03T14:16:03;1.00;;;0.75;;
60730;SDS011;46580;52.114;11.674;2022-07-03T14:18:29;2.03;;;0.53;;
60730;SDS011;46580;52.114;11.674;2022-07-03T14:20:57;0.80;;;0.70;;
60730;SDS011;46580;52.114;11.674;2022-07-03T14:23:23;2.65;;;0.60;;
60730;SDS011;46580;52.114;11.674;2022-07-03T14:25:51;1.17;;;0.80;;
60730;SDS011;46580;52.114;11.674;2022-07-03T14:28:17;1.63;;;0.75;;
60730;SDS011;46580;52.114;11.674;2022-07-03T14:31:02;1.13;;;0.93;;
60730;SDS011;46580;52.114;11.674;2022-07-03T14:33:45;3.37;;;0.90;;
60730;SDS011;46580;52.114;11.674;2022-07-03T14:36:14;1.10;;;0.63;;
60730;SDS011;46580;52.114;11.674;2022-07-03T14:38:41;0.77;;;0.77;;
60730;SDS011;46580;52.114;11.674;2022-07-03T14:41:13;0.77;;;0.77;;
60730;SDS011;46580;52.114;11.674;2022-07-03T14:43:40;0.63;;;0.63;;
60730;SDS011;46580;52.114;11.674;2022-07-03T14:46:07;0.70;;;0.70;;
60730;SDS011;46580;52.114;11.674;2022-07-03T14:48:32;1.53;;;0.70;;
60730;SDS011;46580;52.114;11.674;2022-07-03T14:50:58;3.83;;;0.97;;
60730;SDS011;46580;52.114;11.674;2022-07-03T14:53:25;1.17;;;0.87;;
60730;SDS011;46580;52.114;11.674;2022-07-03T14:55:50;0.73;;;0.63;;
60730;SDS011;46580;52.114;11.674;2022-07-03T14:58:21;2.80;;;0.70;;
60730;SDS011;46580;52.114;11.674;2022-07-03T15:00:54;1.73;;;0.73;;
60730;SDS011;46580;52.114;11.674;2022-07-03T15:03:32;1.33;;;0.80;;
60730;SDS011;46580;52.114;11.674;2022-07-03T15:06:00;3.43;;;0.80;;
60730;SDS011;46580;52.114;11.674;2022-07-03T15:11:07;2.40;;;0.80;;
60730;SDS011;46580;52.114;11.674;2022-07-03T15:14:03;0.93;;;0.80;;
60730;SDS011;46580;52.114;11.674;2022-07-03T15:16:31;3.27;;;0.70;;
60730;SDS011;46580;52.114;11.674;2022-07-03T15:18:59;1.73;;;0.70;;
60730;SDS011;46580;52.114;11.674;2022-07-03T15:21:28;2.33;;;0.80;;
60730;SDS011;46580;52.114;11.674;2022-07-03T15:24:01;0.80;;;0.73;;
60730;SDS011;46580;52.114;11.674;2022-07-03T15:26:31;2.80;;;0.80;;
60730;SDS011;46580;52.114;11.674;2022-07-03T15:29:00;1.33;;;0.93;;
60730;SDS011;46580;52.114;11.674;2022-07-03T15:31:28;1.13;;;0.90;;
60730;SDS011;46580;52.114;11.674;2022-07-03T15:34:02;3.00;;;0.83;;
60730;SDS011;46580;52.114;11.674;2022-07-03T15:39:25;2.00;;;0.80;;
60730;SDS011;46580;52.114;11.674;2022-07-03T15:45:09;1.00;;;0.83;;
60730;SDS011;46580;52.114;11.674;2022-07-03T15:53:36;0.60;;;0.60;;
60730;SDS011;46580;52.114;11.674;2022-07-03T15:56:04;3.80;;;0.90;;
60730;SDS011;46580;52.114;11.674;2022-07-03T15:58:34;1.38;;;0.80;;
60730;SDS011;46580;52.114;11.674;2022-07-03T16:01:04;1.10;;;0.90;;
60730;SDS011;46580;52.114;11.674;2022-07-03T16:04:09;2.05;;;0.80;;
60730;SDS011;46580;52.114;11.674;2022-07-03T16:06:38;2.57;;;0.90;;
60730;SDS011;46580;52.114;11.674;2022-07-03T16:09:06;0.60;;;0.60;;
60730;SDS011;46580;52.114;11.674;2022-07-03T16:11:35;1.17;;;0.80;;
60730;SDS011;46580;52.114;11.674;2022-07-03T16:14:04;2.23;;;1.00;;
60730;SDS011;46580;52.114;11.674;2022-07-03T16:16:32;1.53;;;0.90;;
60730;SDS011;46580;52.114;11.674;2022-07-03T16:19:03;2.60;;;0.87;;
60730;SDS011;46580;52.114;11.674;2022-07-03T16:21:30;2.10;;;0.80;;
60730;SDS011;46580;52.114;11.674;2022-07-03T16:23:57;0.80;;;0.60;;
60730;SDS011;46580;52.114;11.674;2022-07-03T16:26:24;1.70;;;0.80;;
60730;SDS011;46580;52.114;11.674;2022-07-03T16:28:54;2.33;;;1.03;;
60730;SDS011;46580;52.114;11.674;2022-07-03T16:31:24;2.50;;;0.90;;
60730;SDS011;46580;52.114;11.674;2022-07-03T16:36:57;1.90;;;0.90;;
60730;SDS011;46580;52.114;11.674;2022-07-03T16:39:37;5.90;;;0.90;;
60730;SDS011;46580;52.114;11.674;2022-07-03T16:42:07;1.70;;;0.80;;
60730;SDS011;46580;52.114;11.674;2022-07-03T16:44:42;1.53;;;0.87;;
60730;SDS011;46580;52.114;11.674;2022-07-03T16:47:13;0.90;;;0.80;;
60730;SDS011;46580;52.114;11.674;2022-07-03T16:49:41;1.10;;;0.80;;
60730;SDS011;46580;52.114;11.674;2022-07-03T16:52:09;1.17;;;0.93;;
60730;SDS011;46580;52.114;11.674;2022-07-03T16:54:36;0.83;;;0.80;;
60730;SDS011;46580;52.114;11.674;2022-07-03T16:57:07;1.57;;;0.73;;
60730;SDS011;46580;52.114;11.674;2022-07-03T16:59:35;1.00;;;0.90;;